Time;durP1;ratioP1;P1;durP2;ratioP2;P2;SDS_P1;SDS_P2;PMS_P1;PMS_P2;Temp;Humidity;BMP_temperature;BMP_pressure;BME280_temperature;BME280_humidity;BME280_pressure;Samples;Min_cycle;Max_cycle;Signal;HPM_P1;HPM_P2
2022/12/11 00:01:17;;;;;;;110.23;34.83;;;0.40;99.90;;;;;;5010633;28;20410;-84
2022/12/11 00:03:43;;;;;;;139.80;32.43;;;0.50;99.90;;;;;;4994285;28;20049;-85
2022/12/11 00:06:11;;;;;;;54.37;29.97;;;0.50;99.90;;;;;;5011104;28;20030;-85
2022/12/11 00:08:37;;;;;;;110.30;34.10;;;0.50;99.90;;;;;;4994735;28;20034;-85
2022/12/11 00:11:03;;;;;;;66.93;35.80;;;0.40;99.90;;;;;;4978543;28;20490;-85
2022/12/11 00:13:29;;;;;;;130.77;37.57;;;0.40;99.90;;;;;;4997264;28;20030;-84
2022/12/11 00:15:57;;;;;;;70.43;34.83;;;0.50;99.90;;;;;;5013917;28;20034;-84
2022/12/11 00:18:23;;;;;;;173.70;38.67;;;0.60;99.90;;;;;;4981664;28;20038;-84
2022/12/11 00:20:49;;;;;;;77.57;33.17;;;0.50;99.90;;;;;;4981731;28;20045;-84
2022/12/11 00:23:16;;;;;;;68.70;35.27;;;0.40;99.90;;;;;;5011273;28;20480;-84
2022/12/11 00:25:46;;;;;;;147.80;39.83;;;0.50;99.90;;;;;;5010576;28;20077;-84
2022/12/11 00:28:13;;;;;;;99.67;36.77;;;0.50;99.90;;;;;;5011042;28;20033;-85
2022/12/11 00:30:43;;;;;;;135.50;38.23;;;0.70;99.90;;;;;;5010323;28;20038;-84
2022/12/11 00:33:11;;;;;;;120.40;37.97;;;0.70;99.90;;;;;;5026850;28;20464;-84
2022/12/11 00:35:38;;;;;;;101.20;36.63;;;0.60;99.90;;;;;;5026984;28;20026;-84
2022/12/11 00:38:04;;;;;;;236.50;40.77;;;0.50;99.90;;;;;;4994456;28;20045;-84
2022/12/11 00:40:35;;;;;;;110.60;35.10;;;0.50;99.90;;;;;;5010653;28;20468;-84
2022/12/11 00:43:02;;;;;;;141.98;34.10;;;0.50;99.90;;;;;;5027022;28;20030;-84
2022/12/11 00:45:28;;;;;;;96.07;37.23;;;0.50;99.90;;;;;;5009831;28;20034;-84
2022/12/11 00:47:54;;;;;;;140.90;40.43;;;0.50;99.90;;;;;;4994080;28;20487;-83
2022/12/11 00:50:20;;;;;;;108.10;36.80;;;0.70;99.90;;;;;;5010420;28;20531;-84
2022/12/11 00:52:46;;;;;;;169.53;42.07;;;0.70;99.90;;;;;;5010244;28;20224;-84
2022/12/11 00:55:12;;;;;;;102.67;39.90;;;0.60;99.90;;;;;;5028377;28;20027;-85
2022/12/11 00:57:38;;;;;;;81.37;37.27;;;0.70;99.90;;;;;;4981401;28;20038;-84
2022/12/11 01:00:06;;;;;;;104.97;37.80;;;0.60;99.90;;;;;;4996993;28;20042;-84
2022/12/11 01:02:32;;;;;;;120.33;38.43;;;0.60;99.90;;;;;;4980403;28;20041;-84
2022/12/11 01:04:59;;;;;;;89.83;38.87;;;0.50;99.90;;;;;;4981262;28;20053;-84
2022/12/11 01:07:25;;;;;;;96.77;35.63;;;0.50;99.90;;;;;;4996982;28;20026;-84
2022/12/11 01:12:35;;;;;;;81.87;38.03;;;0.40;99.90;;;;;;5016761;28;20029;-84
2022/12/11 01:15:02;;;;;;;75.83;36.93;;;0.30;99.90;;;;;;5013170;28;20498;-84
2022/12/11 01:17:28;;;;;;;32.00;20.47;;;0.40;99.90;;;;;;5012260;28;20495;-84
2022/12/11 01:19:54;;;;;;;52.20;30.53;;;0.30;99.90;;;;;;4988103;28;20045;-84
2022/12/11 01:22:20;;;;;;;50.97;24.97;;;0.10;99.90;;;;;;5026315;28;20022;-84
2022/12/11 01:24:46;;;;;;;71.97;36.00;;;0.10;99.90;;;;;;5025699;28;20026;-84
2022/12/11 01:27:12;;;;;;;71.83;35.20;;;0.10;99.90;;;;;;5026063;28;20538;-84
2022/12/11 01:29:39;;;;;;;92.23;34.80;;;0.10;99.90;;;;;;4993068;28;20046;-85
2022/12/11 01:32:05;;;;;;;166.63;39.60;;;0.10;99.90;;;;;;5025579;28;20034;-84
2022/12/11 01:34:32;;;;;;;124.50;39.57;;;0.10;99.90;;;;;;5009977;28;20053;-84
2022/12/11 01:36:58;;;;;;;149.20;38.83;;;0.10;99.90;;;;;;5025863;28;20031;-85
2022/12/11 01:39:24;;;;;;;175.07;36.50;;;0.10;99.90;;;;;;5009714;28;20042;-85
2022/12/11 01:41:55;;;;;;;97.50;33.57;;;0.20;99.90;;;;;;5009266;28;20502;-84
2022/12/11 01:44:21;;;;;;;95.95;31.75;;;0.00;99.90;;;;;;5025861;28;20041;-84
2022/12/11 01:46:47;;;;;;;114.87;39.53;;;0.00;99.90;;;;;;4993494;28;20023;-84
2022/12/11 01:49:13;;;;;;;71.43;37.87;;;0.00;99.90;;;;;;5009478;28;20399;-84
2022/12/11 01:51:59;;;;;;;79.60;41.07;;;0.10;99.90;;;;;;5025698;28;20041;-84
2022/12/11 01:54:25;;;;;;;84.43;39.00;;;0.20;99.90;;;;;;5025545;28;20030;-85
2022/12/11 01:56:52;;;;;;;52.53;32.77;;;0.30;99.90;;;;;;5040924;28;20034;-84
2022/12/11 01:59:21;;;;;;;82.03;41.43;;;0.30;99.90;;;;;;5012091;28;20506;-84
2022/12/11 02:01:54;;;;;;;256.03;48.20;;;0.40;99.90;;;;;;4979796;28;20037;-85
2022/12/11 02:04:20;;;;;;;143.67;42.53;;;0.40;99.90;;;;;;4997014;28;20037;-84
2022/12/11 02:06:47;;;;;;;67.23;38.57;;;0.50;99.90;;;;;;4995970;28;20033;-85
2022/12/11 02:09:18;;;;;;;71.37;33.63;;;0.40;99.90;;;;;;5013362;28;20041;-84
2022/12/11 02:11:53;;;;;;;121.75;40.13;;;0.20;99.90;;;;;;5012303;28;20030;-85
2022/12/11 02:14:23;;;;;;;76.10;36.27;;;0.10;99.90;;;;;;5012956;28;20034;-85
2022/12/11 02:16:55;;;;;;;68.93;36.90;;;0.20;99.90;;;;;;5011867;28;20030;-84
2022/12/11 02:19:30;;;;;;;68.87;33.90;;;0.20;99.90;;;;;;4992080;28;20029;-85
2022/12/11 02:21:57;;;;;;;86.33;31.33;;;0.10;99.90;;;;;;4993812;28;20046;-84
2022/12/11 02:24:41;;;;;;;85.33;35.60;;;0.00;99.90;;;;;;5008889;28;20022;-84
2022/12/11 02:27:10;;;;;;;170.50;40.03;;;0.00;99.90;;;;;;4993525;28;20526;-84
2022/12/11 02:29:59;;;;;;;279.40;43.57;;;0.00;99.90;;;;;;5024589;28;20042;-84
2022/12/11 02:32:31;;;;;;;55.43;31.77;;;0.10;99.90;;;;;;5007509;28;20035;-85
2022/12/11 02:35:11;;;;;;;102.90;35.77;;;0.30;99.90;;;;;;5008583;28;20030;-84
2022/12/11 02:37:37;;;;;;;78.73;38.43;;;0.10;99.90;;;;;;5007636;28;20142;-85
2022/12/11 02:40:05;;;;;;;94.73;37.03;;;0.10;99.90;;;;;;5008539;28;20034;-85
2022/12/11 02:42:31;;;;;;;78.40;36.67;;;0.20;99.90;;;;;;5025109;28;20031;-84
2022/12/11 02:44:59;;;;;;;95.63;33.33;;;0.00;99.90;;;;;;5008110;28;20042;-85
2022/12/11 02:47:25;;;;;;;107.40;38.00;;;0.10;99.90;;;;;;5024371;28;20041;-85
2022/12/11 02:49:51;;;;;;;90.03;37.60;;;0.10;99.90;;;;;;5024977;28;20046;-84
2022/12/11 02:52:19;;;;;;;395.43;43.63;;;0.00;99.90;;;;;;5024905;28;20038;-84
2022/12/11 02:54:45;;;;;;;125.40;36.10;;;-0.10;99.90;;;;;;5024721;28;20035;-85
2022/12/11 02:57:32;;;;;;;103.93;34.23;;;-0.20;99.90;;;;;;5026201;28;20048;-85
2022/12/11 02:59:58;;;;;;;269.70;41.63;;;-0.10;99.90;;;;;;4995273;28;20404;-84
2022/12/11 03:02:24;;;;;;;153.80;35.47;;;-0.10;99.90;;;;;;4989117;28;20038;-84
2022/12/11 03:04:50;;;;;;;193.83;38.97;;;-0.20;99.90;;;;;;4981553;28;20034;-85
2022/12/11 03:07:25;;;;;;;66.67;33.30;;;-0.20;99.90;;;;;;4971883;28;20400;-85
2022/12/11 03:09:51;;;;;;;91.50;31.67;;;-0.20;99.90;;;;;;4971314;28;20053;-85
2022/12/11 03:12:28;;;;;;;125.47;36.83;;;-0.10;99.90;;;;;;4972795;28;20034;-85
2022/12/11 03:14:55;;;;;;;296.13;43.70;;;-0.20;99.90;;;;;;4958704;28;20042;-86
2022/12/11 03:17:47;;;;;;;73.00;29.30;;;-0.20;99.90;;;;;;4954057;28;20050;-85
2022/12/11 03:20:48;;;;;;;126.43;38.47;;;-0.30;99.90;;;;;;4979599;28;20046;-85
2022/12/11 03:23:22;;;;;;;89.53;33.87;;;-0.40;99.90;;;;;;5028150;28;20057;-85
2022/12/11 03:26:02;;;;;;;74.13;36.50;;;-0.20;99.90;;;;;;5003141;28;20045;-85
2022/12/11 03:28:31;;;;;;;80.10;36.47;;;-0.20;99.90;;;;;;4975630;28;20554;-84
2022/12/11 03:30:57;;;;;;;93.73;37.50;;;-0.20;99.90;;;;;;4991531;28;20038;-84
2022/12/11 03:33:31;;;;;;;80.37;35.13;;;-0.20;99.90;;;;;;4975402;28;20042;-85
2022/12/11 03:36:00;;;;;;;97.77;36.93;;;-0.10;99.90;;;;;;4977339;28;20442;-85
2022/12/11 03:38:40;;;;;;;81.93;33.30;;;-0.20;99.90;;;;;;4993873;28;20410;-84
2022/12/11 03:41:06;;;;;;;84.77;36.27;;;-0.30;99.90;;;;;;4992828;28;20037;-85
2022/12/11 03:43:32;;;;;;;84.20;35.83;;;-0.20;99.90;;;;;;5010139;28;20033;-84
2022/12/11 03:45:58;;;;;;;43.23;27.60;;;-0.30;99.90;;;;;;4992594;28;20030;-84
2022/12/11 03:48:29;;;;;;;67.53;33.87;;;-0.50;99.90;;;;;;5012471;28;20042;-84
2022/12/11 03:50:55;;;;;;;88.80;30.85;;;-0.50;99.90;;;;;;4996956;28;20045;-85
2022/12/11 03:53:21;;;;;;;22.93;19.23;;;-0.50;99.90;;;;;;4996916;28;20030;-85
2022/12/11 03:55:47;;;;;;;77.33;32.77;;;-0.50;99.90;;;;;;4993858;28;20405;-85
2022/12/11 03:58:13;;;;;;;54.00;30.37;;;-0.50;99.90;;;;;;5029513;28;20041;-84
2022/12/11 04:00:39;;;;;;;29.40;22.73;;;-0.50;99.90;;;;;;4998021;28;20030;-83
2022/12/11 04:03:16;;;;;;;74.83;34.90;;;-0.50;99.90;;;;;;4998489;28;20041;-86
2022/12/11 04:05:47;;;;;;;125.20;38.87;;;-0.50;99.90;;;;;;5015671;28;20037;-84
2022/12/11 04:08:13;;;;;;;106.18;32.83;;;-0.40;99.90;;;;;;4982344;28;20046;-84
2022/12/11 04:10:39;;;;;;;70.80;37.70;;;-0.40;99.90;;;;;;4997983;28;20042;-83
2022/12/11 04:13:06;;;;;;;57.33;29.97;;;-0.60;99.90;;;;;;4981980;28;20030;-84
2022/12/11 04:15:33;;;;;;;73.00;33.10;;;-0.60;99.90;;;;;;4997673;28;20025;-83
2022/12/11 04:26:33;;;;;;;95.10;34.33;;;-0.50;99.90;;;;;;5008700;28;20049;-83
2022/12/11 04:29:00;;;;;;;104.50;38.20;;;-0.40;99.90;;;;;;5029302;28;20041;-84
2022/12/11 04:31:27;;;;;;;110.07;40.60;;;-0.40;99.90;;;;;;5028922;28;20057;-83
2022/12/11 04:33:53;;;;;;;79.70;37.70;;;-0.30;99.90;;;;;;5029349;28;20030;-83
2022/12/11 04:36:19;;;;;;;55.73;28.03;;;-0.40;99.90;;;;;;5029613;28;20041;-83
2022/12/11 04:38:45;;;;;;;102.30;36.00;;;-0.50;99.90;;;;;;5028952;28;20033;-84
2022/12/11 04:41:12;;;;;;;58.67;35.13;;;-0.40;99.90;;;;;;5029425;28;20387;-84
2022/12/11 04:43:38;;;;;;;76.93;35.97;;;-0.40;99.90;;;;;;5012971;28;20196;-84
2022/12/11 04:46:14;;;;;;;62.17;36.80;;;-0.50;99.90;;;;;;5011767;28;20029;-83
2022/12/11 04:48:40;;;;;;;63.30;37.53;;;-0.40;99.90;;;;;;5029202;28;20038;-83
2022/12/11 04:51:06;;;;;;;69.40;33.17;;;-0.40;99.90;;;;;;5029149;28;20037;-83
2022/12/11 04:53:33;;;;;;;64.00;37.13;;;-0.40;99.90;;;;;;5028814;28;20407;-83
2022/12/11 04:55:59;;;;;;;60.80;36.17;;;-0.30;99.90;;;;;;5036600;28;20029;-83
2022/12/11 04:58:25;;;;;;;76.63;41.33;;;-0.20;99.90;;;;;;5031696;28;20040;-84
2022/12/11 05:00:52;;;;;;;71.80;40.10;;;-0.20;99.90;;;;;;5016053;28;20022;-83
2022/12/11 05:03:18;;;;;;;74.23;41.00;;;-0.20;99.90;;;;;;4997368;28;20022;-83
2022/12/11 05:05:49;;;;;;;59.77;36.13;;;-0.20;99.90;;;;;;4981368;28;20037;-83
2022/12/11 05:08:16;;;;;;;67.10;38.75;;;-0.30;99.90;;;;;;4997158;28;20045;-83
2022/12/11 05:10:42;;;;;;;66.07;38.90;;;-0.20;99.90;;;;;;4997258;28;20046;-84
2022/12/11 05:13:09;;;;;;;41.87;26.13;;;-0.30;99.90;;;;;;4981288;28;20037;-83
2022/12/11 05:15:38;;;;;;;67.00;39.73;;;-0.20;99.90;;;;;;4996578;28;20030;-83
2022/12/11 05:18:04;;;;;;;65.73;38.73;;;-0.20;99.90;;;;;;4997155;28;20022;-84
2022/12/11 05:20:31;;;;;;;66.93;38.83;;;-0.20;99.90;;;;;;4983331;28;20030;-84
2022/12/11 05:22:57;;;;;;;67.17;41.47;;;-0.20;99.90;;;;;;5025879;28;20019;-84
2022/12/11 05:25:23;;;;;;;64.63;37.50;;;-0.20;99.90;;;;;;5009640;28;20057;-84
2022/12/11 05:27:49;;;;;;;45.80;30.27;;;-0.20;99.90;;;;;;5009904;28;20391;-83
2022/12/11 05:30:15;;;;;;;58.93;35.23;;;-0.30;99.90;;;;;;5025612;28;20038;-83
2022/12/11 05:32:41;;;;;;;61.47;35.90;;;-0.30;99.90;;;;;;5009782;28;20042;-83
2022/12/11 05:35:07;;;;;;;64.57;40.07;;;-0.30;99.90;;;;;;5009772;28;20061;-83
2022/12/11 05:37:33;;;;;;;58.20;37.33;;;-0.20;99.90;;;;;;5009400;28;20039;-84
2022/12/11 05:40:00;;;;;;;64.23;39.13;;;-0.20;99.90;;;;;;5009751;28;20038;-84
2022/12/11 05:42:26;;;;;;;67.27;38.87;;;-0.10;99.90;;;;;;5009599;28;20029;-84
2022/12/11 05:44:52;;;;;;;63.70;38.50;;;0.00;99.90;;;;;;5025846;28;20042;-84
2022/12/11 05:47:19;;;;;;;67.47;41.07;;;0.00;99.90;;;;;;5025217;28;20035;-84
2022/12/11 05:49:46;;;;;;;62.30;40.07;;;0.10;99.90;;;;;;5008984;28;20049;-84
2022/12/11 05:52:12;;;;;;;67.17;39.83;;;0.10;99.90;;;;;;5025161;28;20038;-84
2022/12/11 05:54:39;;;;;;;61.30;38.30;;;0.10;99.90;;;;;;4992907;28;20045;-83
2022/12/11 05:57:05;;;;;;;63.83;39.50;;;0.20;99.90;;;;;;5026046;28;20157;-84
2022/12/11 05:59:31;;;;;;;62.80;38.00;;;0.20;99.90;;;;;;4980115;28;20041;-84
2022/12/11 06:01:57;;;;;;;55.63;36.53;;;0.40;99.90;;;;;;4995685;28;20030;-84
2022/12/11 06:04:23;;;;;;;55.07;35.50;;;0.60;99.90;;;;;;4980210;28;20048;-84
2022/12/11 06:06:49;;;;;;;56.07;36.97;;;0.70;99.90;;;;;;4995886;28;20037;-83
2022/12/11 06:09:15;;;;;;;47.73;32.60;;;0.50;99.90;;;;;;4996267;28;20034;-84
2022/12/11 06:11:41;;;;;;;37.03;26.43;;;0.20;99.90;;;;;;4979718;28;20398;-84
2022/12/11 06:14:08;;;;;;;47.73;33.03;;;0.00;99.90;;;;;;4995979;28;20038;-84
2022/12/11 06:16:35;;;;;;;51.67;34.13;;;-0.10;99.90;;;;;;4979418;28;20037;-84
2022/12/11 06:19:01;;;;;;;57.63;36.53;;;-0.10;99.90;;;;;;4994571;28;20034;-83
2022/12/11 06:21:28;;;;;;;54.37;34.77;;;-0.10;99.90;;;;;;5024835;28;20030;-84
2022/12/11 06:23:56;;;;;;;50.90;35.63;;;-0.10;99.90;;;;;;5008986;28;20042;-84
2022/12/11 06:26:22;;;;;;;29.17;26.17;;;-0.10;99.90;;;;;;5008748;28;20423;-84
2022/12/11 06:28:48;;;;;;;34.87;28.17;;;-0.10;99.90;;;;;;5008717;28;20101;-84
2022/12/11 06:31:15;;;;;;;54.80;34.03;;;-0.20;99.90;;;;;;4992240;28;20042;-84
2022/12/11 06:33:41;;;;;;;52.40;32.23;;;-0.20;99.90;;;;;;5008768;28;20034;-84
2022/12/11 06:36:09;;;;;;;57.07;36.17;;;-0.20;99.90;;;;;;5024720;28;20459;-84
2022/12/11 06:38:35;;;;;;;49.30;33.10;;;-0.20;99.90;;;;;;5025035;28;20038;-84
2022/12/11 06:41:03;;;;;;;59.47;37.23;;;-0.10;99.90;;;;;;5024865;28;20022;-84
2022/12/11 06:43:30;;;;;;;27.20;22.40;;;-0.10;99.90;;;;;;5008359;28;20026;-84
2022/12/11 06:45:56;;;;;;;60.00;36.53;;;-0.10;99.90;;;;;;5008178;28;20030;-84
2022/12/11 06:48:22;;;;;;;55.83;35.60;;;-0.10;99.90;;;;;;5024577;28;20034;-84
2022/12/11 06:50:48;;;;;;;40.83;29.23;;;-0.10;99.90;;;;;;4991640;28;20050;-84
2022/12/11 06:53:15;;;;;;;46.80;31.37;;;-0.10;99.90;;;;;;5008654;28;20042;-83
2022/12/11 06:55:41;;;;;;;42.67;28.53;;;-0.10;99.90;;;;;;4997265;28;20030;-84
2022/12/11 06:58:07;;;;;;;48.47;30.87;;;-0.20;99.90;;;;;;5011501;28;20036;-84
2022/12/11 07:00:34;;;;;;;41.03;26.07;;;-0.20;99.90;;;;;;5011017;28;20030;-84
2022/12/11 07:03:01;;;;;;;57.33;32.87;;;-0.30;99.90;;;;;;5011546;28;20037;-84
2022/12/11 07:05:27;;;;;;;57.77;35.60;;;-0.30;99.90;;;;;;4994839;28;20029;-84
2022/12/11 07:07:53;;;;;;;37.70;26.27;;;-0.30;99.90;;;;;;4979325;28;20053;-83
2022/12/11 07:10:20;;;;;;;58.83;32.20;;;-0.30;99.90;;;;;;4995180;28;20038;-83
2022/12/11 07:12:46;;;;;;;54.20;34.90;;;-0.30;99.90;;;;;;5011316;28;20022;-85
2022/12/11 07:15:12;;;;;;;33.97;24.77;;;-0.30;99.90;;;;;;4994711;28;20034;-84
2022/12/11 07:17:38;;;;;;;49.13;30.30;;;-0.20;99.90;;;;;;4995405;28;20030;-84
2022/12/11 07:20:05;;;;;;;49.23;33.00;;;-0.20;99.90;;;;;;5001671;28;20376;-85
2022/12/11 07:22:31;;;;;;;36.20;26.00;;;-0.30;99.90;;;;;;5009418;28;20035;-85
2022/12/11 07:24:57;;;;;;;46.70;29.50;;;-0.30;99.90;;;;;;5012355;28;20039;-84
2022/12/11 07:27:23;;;;;;;49.87;32.80;;;-0.40;99.90;;;;;;5028877;28;20058;-84
2022/12/11 07:29:50;;;;;;;43.83;30.23;;;-0.30;99.90;;;;;;5028319;28;20027;-86
2022/12/11 07:32:16;;;;;;;34.87;25.80;;;-0.30;99.90;;;;;;4995156;28;20034;-85
2022/12/11 07:34:42;;;;;;;41.63;27.87;;;-0.30;99.90;;;;;;5011687;28;20022;-84
2022/12/11 07:37:08;;;;;;;43.67;29.17;;;-0.40;99.90;;;;;;5028213;28;20041;-84
2022/12/11 07:39:34;;;;;;;53.03;32.73;;;-0.30;99.90;;;;;;5011875;28;20041;-84
2022/12/11 07:42:00;;;;;;;49.87;31.93;;;-0.40;99.90;;;;;;5012005;28;20472;-83
2022/12/11 07:44:26;;;;;;;46.50;32.40;;;-0.20;99.90;;;;;;5011717;28;20041;-84
2022/12/11 07:46:52;;;;;;;52.47;34.80;;;-0.30;99.90;;;;;;4996176;28;20057;-84
2022/12/11 07:49:19;;;;;;;50.77;33.20;;;-0.40;99.90;;;;;;5011561;28;20049;-84
2022/12/11 07:51:45;;;;;;;32.40;26.20;;;-0.40;99.90;;;;;;5011601;28;20050;-84
2022/12/11 07:54:15;;;;;;;40.77;29.17;;;-0.40;99.90;;;;;;5011607;28;20030;-83
2022/12/11 07:56:45;;;;;;;26.55;22.75;;;-0.40;99.90;;;;;;5041090;28;20406;-87
2022/12/11 07:59:11;;;;;;;53.27;33.37;;;-0.40;99.90;;;;;;5014668;28;20026;-84
2022/12/11 08:01:37;;;;;;;51.97;33.80;;;-0.30;99.90;;;;;;4998058;28;20078;-86
2022/12/11 08:04:05;;;;;;;23.57;21.20;;;-0.30;99.90;;;;;;4998148;28;20033;-86
2022/12/11 08:06:33;;;;;;;47.63;32.90;;;-0.20;99.90;;;;;;4982634;28;20046;-85
2022/12/11 08:09:00;;;;;;;58.77;36.70;;;-0.30;99.90;;;;;;4998261;28;20025;-85
2022/12/11 08:11:26;;;;;;;27.47;23.73;;;-0.30;99.90;;;;;;4982122;28;20426;-85
2022/12/11 08:13:52;;;;;;;55.97;35.40;;;-0.30;99.90;;;;;;5014719;28;20414;-86
2022/12/11 08:16:18;;;;;;;45.87;30.83;;;-0.20;99.90;;;;;;4997459;28;20030;-85
2022/12/11 08:18:45;;;;;;;26.00;22.10;;;-0.20;99.90;;;;;;4998302;28;20034;-85
2022/12/11 08:21:14;;;;;;;46.53;31.57;;;-0.30;99.90;;;;;;4979127;28;20037;-86
2022/12/11 08:23:40;;;;;;;41.50;27.20;;;-0.20;99.90;;;;;;5011230;28;20039;-86
2022/12/11 08:26:08;;;;;;;52.83;30.43;;;-0.30;99.90;;;;;;5010866;28;20046;-85
2022/12/11 08:28:34;;;;;;;40.57;27.97;;;-0.20;99.90;;;;;;5011163;28;20037;-85
2022/12/11 08:31:03;;;;;;;36.20;26.60;;;-0.20;99.90;;;;;;5010082;28;20042;-85
2022/12/11 08:33:29;;;;;;;46.27;29.10;;;-0.20;99.90;;;;;;5027328;28;20053;-85
2022/12/11 08:35:55;;;;;;;44.07;29.37;;;-0.10;99.90;;;;;;5011118;28;20396;-86
2022/12/11 08:38:21;;;;;;;49.80;32.33;;;-0.10;99.90;;;;;;5010761;28;20031;-85
2022/12/11 08:40:47;;;;;;;38.47;28.07;;;0.00;99.90;;;;;;4994367;28;20041;-85
2022/12/11 08:43:13;;;;;;;41.20;29.53;;;0.00;99.90;;;;;;5027590;28;20471;-86
2022/12/11 08:45:40;;;;;;;37.77;26.47;;;0.10;99.90;;;;;;5026251;28;20045;-86
2022/12/11 08:48:06;;;;;;;45.60;27.93;;;0.10;99.90;;;;;;5010791;28;20039;-87
2022/12/11 08:50:32;;;;;;;35.03;26.03;;;0.10;99.90;;;;;;5010830;28;20388;-86
2022/12/11 08:52:58;;;;;;;36.23;25.33;;;0.00;99.90;;;;;;5026855;28;20035;-85
2022/12/11 08:55:24;;;;;;;44.70;28.27;;;-0.10;99.90;;;;;;4997180;28;20029;-86
2022/12/11 08:57:50;;;;;;;46.43;31.67;;;0.00;99.90;;;;;;5013875;28;20435;-86
2022/12/11 09:00:17;;;;;;;37.40;27.33;;;-0.10;99.90;;;;;;5012858;28;20360;-86
2022/12/11 09:02:43;;;;;;;51.50;33.40;;;0.00;99.90;;;;;;4997486;28;20041;-85
2022/12/11 09:05:09;;;;;;;48.17;31.63;;;0.00;99.90;;;;;;4997623;28;20038;-85
2022/12/11 09:07:36;;;;;;;47.83;31.83;;;0.00;99.90;;;;;;4997186;28;20041;-86
2022/12/11 09:10:03;;;;;;;25.63;22.83;;;0.10;99.90;;;;;;4997210;28;20037;-85
2022/12/11 09:12:30;;;;;;;44.60;31.83;;;0.10;99.90;;;;;;4981185;28;20053;-85
2022/12/11 09:14:56;;;;;;;51.40;31.73;;;0.20;99.90;;;;;;5013160;28;20025;-86
2022/12/11 09:17:22;;;;;;;29.70;24.67;;;0.30;99.90;;;;;;5013737;28;20400;-85
2022/12/11 09:19:48;;;;;;;49.60;32.33;;;0.30;99.90;;;;;;4989242;28;20033;-86
2022/12/11 09:22:14;;;;;;;43.43;30.50;;;0.20;99.90;;;;;;5009952;28;20384;-85
2022/12/11 09:24:41;;;;;;;44.40;31.03;;;0.30;99.90;;;;;;5026169;28;20014;-85
2022/12/11 09:27:07;;;;;;;48.93;32.60;;;0.40;99.90;;;;;;5010007;28;20045;-85
2022/12/11 09:29:33;;;;;;;43.70;30.77;;;0.30;99.90;;;;;;5009600;28;20053;-85
2022/12/11 09:31:59;;;;;;;46.70;30.73;;;0.40;99.90;;;;;;5025607;28;20038;-85
2022/12/11 09:34:25;;;;;;;44.07;30.00;;;0.50;99.90;;;;;;5026169;28;20045;-86
2022/12/11 09:36:51;;;;;;;33.00;25.87;;;0.50;99.90;;;;;;5009926;28;20041;-86
2022/12/11 09:39:17;;;;;;;47.97;31.77;;;0.40;99.90;;;;;;5009535;28;20042;-85
2022/12/11 09:42:12;;;;;;;47.87;30.60;;;0.40;99.90;;;;;;4993483;28;20397;-85
2022/12/11 09:44:46;;;;;;;40.60;27.87;;;0.40;99.90;;;;;;5008965;28;20041;-85
2022/12/11 09:47:17;;;;;;;53.60;35.40;;;0.40;99.90;;;;;;5025509;28;20038;-85
2022/12/11 09:49:44;;;;;;;46.40;29.80;;;0.50;99.90;;;;;;5009452;28;20039;-86
2022/12/11 09:52:12;;;;;;;48.60;32.63;;;0.50;99.90;;;;;;5009532;28;20047;-85
2022/12/11 09:54:54;;;;;;;69.40;42.70;;;0.60;99.90;;;;;;5009364;28;20022;-85
2022/12/11 09:57:28;;;;;;;54.80;37.60;;;0.70;99.90;;;;;;5028274;28;20391;-85
2022/12/11 10:00:40;;;;;;;43.93;28.53;;;0.70;99.90;;;;;;4996075;28;20394;-85
2022/12/11 10:03:28;;;;;;;50.20;31.93;;;0.80;99.90;;;;;;4994314;28;20034;-86
2022/12/11 10:06:15;;;;;;;40.90;31.03;;;0.90;99.90;;;;;;5027896;28;20030;-85
2022/12/11 10:08:50;;;;;;;54.13;34.77;;;0.80;99.90;;;;;;5027010;28;20320;-86
2022/12/11 10:11:35;;;;;;;51.03;31.47;;;0.90;99.90;;;;;;5011447;28;20145;-87
2022/12/11 10:14:25;;;;;;;44.97;30.90;;;1.00;99.90;;;;;;5010948;28;20034;-85
2022/12/11 10:16:58;;;;;;;39.57;26.77;;;1.20;99.90;;;;;;5027084;28;20041;-85
2022/12/11 10:19:29;;;;;;;43.13;28.80;;;1.20;99.90;;;;;;5005998;28;20027;-85
2022/12/11 10:21:55;;;;;;;49.85;30.30;;;1.10;99.90;;;;;;4976037;28;20045;-85
2022/12/11 10:24:30;;;;;;;30.40;23.87;;;1.10;99.90;;;;;;4991324;28;20031;-86
2022/12/11 10:26:58;;;;;;;56.47;36.60;;;1.00;99.90;;;;;;4990214;28;20053;-85
2022/12/11 10:29:24;;;;;;;90.43;55.70;;;1.00;99.90;;;;;;5007636;28;20530;-85
2022/12/11 10:31:56;;;;;;;46.10;30.67;;;1.00;99.90;;;;;;4975096;28;20054;-85
2022/12/11 10:34:40;;;;;;;95.27;51.93;;;1.00;99.90;;;;;;4974915;28;20041;-85
2022/12/11 10:37:06;;;;;;;61.23;38.53;;;1.10;99.90;;;;;;4974888;28;20043;-85
2022/12/11 10:39:32;;;;;;;41.83;27.93;;;1.00;99.90;;;;;;5006179;28;20042;-85
2022/12/11 10:41:58;;;;;;;49.70;35.47;;;1.00;99.90;;;;;;5008293;28;20480;-85
2022/12/11 10:44:29;;;;;;;36.57;27.10;;;1.10;99.90;;;;;;5008486;28;20038;-86
2022/12/11 10:47:06;;;;;;;47.50;32.67;;;1.20;99.90;;;;;;5024302;28;20034;-85
2022/12/11 10:49:33;;;;;;;44.30;27.93;;;1.20;99.90;;;;;;5024764;28;20026;-85
2022/12/11 10:52:00;;;;;;;52.23;32.93;;;1.30;99.90;;;;;;5024721;28;20038;-85
2022/12/11 10:54:33;;;;;;;48.33;33.27;;;1.30;99.90;;;;;;5008432;28;20050;-85
2022/12/11 10:57:00;;;;;;;33.50;22.97;;;1.40;99.90;;;;;;5023052;28;20042;-84
2022/12/11 10:59:38;;;;;;;33.00;24.00;;;1.50;99.90;;;;;;4995311;28;20025;-84
2022/12/11 11:02:05;;;;;;;46.50;30.03;;;1.40;99.90;;;;;;5012176;28;20040;-85
2022/12/11 11:04:37;;;;;;;38.13;29.07;;;1.30;99.90;;;;;;4995292;28;20026;-85
2022/12/11 11:07:13;;;;;;;43.90;29.63;;;1.40;99.90;;;;;;4979223;28;20038;-84
2022/12/11 11:09:39;;;;;;;39.37;29.03;;;1.50;99.90;;;;;;4995307;28;20034;-84
2022/12/11 11:12:23;;;;;;;43.23;30.67;;;1.40;99.90;;;;;;4994847;28;20502;-85
2022/12/11 11:14:59;;;;;;;36.13;25.13;;;1.30;99.90;;;;;;4979866;28;20505;-85
2022/12/11 11:17:25;;;;;;;51.40;32.90;;;1.30;99.90;;;;;;4994499;28;20038;-85
2022/12/11 11:19:51;;;;;;;51.13;33.53;;;1.40;99.90;;;;;;4986669;28;20022;-85
2022/12/11 11:22:17;;;;;;;45.63;31.73;;;1.50;99.90;;;;;;5024409;28;20494;-85
2022/12/11 11:24:54;;;;;;;46.70;32.53;;;1.40;99.90;;;;;;5024538;28;20590;-85
2022/12/11 11:27:23;;;;;;;36.90;28.37;;;1.50;99.90;;;;;;5007965;28;20042;-84
2022/12/11 11:29:54;;;;;;;46.17;31.53;;;1.50;99.90;;;;;;5024432;28;20510;-85
2022/12/11 11:32:32;;;;;;;48.70;30.05;;;1.60;99.90;;;;;;5007435;28;20050;-85
2022/12/11 11:35:11;;;;;;;46.10;31.37;;;1.80;99.90;;;;;;5008143;28;20035;-85
2022/12/11 11:37:42;;;;;;;43.20;31.40;;;1.70;99.90;;;;;;5007115;28;20030;-85
2022/12/11 11:40:29;;;;;;;49.80;33.55;;;1.80;99.90;;;;;;5023957;28;20022;-85
2022/12/11 11:42:55;;;;;;;54.50;33.27;;;1.70;99.90;;;;;;4991645;28;20031;-85
2022/12/11 11:45:26;;;;;;;49.23;33.90;;;1.70;99.90;;;;;;4992424;28;20038;-85
2022/12/11 11:48:01;;;;;;;53.95;31.65;;;1.70;99.90;;;;;;5024352;28;20023;-86
2022/12/11 11:50:33;;;;;;;42.53;28.20;;;1.70;99.90;;;;;;4991815;28;20046;-85
2022/12/11 11:53:04;;;;;;;40.40;28.90;;;1.70;99.90;;;;;;5024253;28;20038;-85
2022/12/11 11:55:48;;;;;;;;;;;1.70;99.90;;;;;;5028354;28;20494;-85
2022/12/11 11:58:18;;;;;;;28.47;20.87;;;1.70;99.90;;;;;;5012317;28;19942;-85
2022/12/11 12:00:44;;;;;;;54.20;33.63;;;1.70;99.90;;;;;;4978229;28;20053;-85
2022/12/11 12:03:12;;;;;;;51.30;32.53;;;1.80;99.90;;;;;;4994743;28;20025;-85
2022/12/11 12:05:50;;;;;;;62.60;38.40;;;1.70;99.90;;;;;;4978984;28;20069;-85
2022/12/11 12:08:22;;;;;;;46.23;31.33;;;1.70;99.90;;;;;;5011408;28;20030;-85
2022/12/11 12:11:00;;;;;;;55.00;34.50;;;1.80;99.90;;;;;;5015622;28;20463;-84
2022/12/11 12:13:26;;;;;;;61.23;36.87;;;2.00;99.90;;;;;;5014512;28;20387;-85
2022/12/11 12:15:57;;;;;;;35.30;26.93;;;1.90;99.90;;;;;;5014044;28;20029;-85
2022/12/11 12:19:08;;;;;;;44.08;30.83;;;1.80;99.90;;;;;;4998026;28;20037;-85
2022/12/11 12:21:35;;;;;;;39.77;28.63;;;1.80;99.90;;;;;;4996551;28;20034;-84
2022/12/11 12:24:22;;;;;;;45.70;31.20;;;2.00;99.90;;;;;;5012059;28;20076;-85
2022/12/11 12:26:59;;;;;;;64.37;39.60;;;2.10;99.90;;;;;;5012946;28;20061;-86
2022/12/11 12:29:40;;;;;;;40.87;29.57;;;2.10;99.90;;;;;;5011830;28;20038;-85
2022/12/11 12:32:33;;;;;;;38.67;27.27;;;2.20;99.90;;;;;;5028600;28;20046;-85
2022/12/11 12:35:33;;;;;;;46.20;31.63;;;2.10;99.90;;;;;;5027132;28;20026;-85
2022/12/11 12:38:02;;;;;;;37.20;27.57;;;2.10;99.90;;;;;;5029114;28;20379;-85
2022/12/11 12:40:40;;;;;;;30.20;22.07;;;2.10;99.90;;;;;;5012947;28;20037;-85
2022/12/11 12:43:33;;;;;;;34.93;23.30;;;2.20;99.90;;;;;;5028305;28;20177;-84
2022/12/11 12:46:09;;;;;;;31.40;23.73;;;2.10;99.90;;;;;;5012552;28;20483;-85
2022/12/11 12:48:35;;;;;;;32.33;25.50;;;2.00;99.90;;;;;;5028594;28;20034;-85
2022/12/11 12:51:01;;;;;;;32.43;26.00;;;2.10;99.90;;;;;;5028139;28;20061;-85
2022/12/11 12:53:29;;;;;;;36.90;27.90;;;2.10;99.90;;;;;;5028797;28;20061;-85